createdAt,value
2023-01-19T00:01:44.200Z,32.67
2023-01-19T00:04:12.100Z,32.60
2023-01-19T00:06:39.788Z,32.33
2023-01-19T00:09:07.445Z,32.60
2023-01-19T00:11:35.400Z,32.39
2023-01-19T00:14:03.530Z,32.93
2023-01-19T00:16:31.447Z,32.69
2023-01-19T00:18:59.265Z,32.74
2023-01-19T00:21:27.236Z,32.61
2023-01-19T00:23:55.060Z,32.45
2023-01-19T00:26:22.804Z,32.60
2023-01-19T00:28:50.891Z,33.19
2023-01-19T00:31:20.844Z,32.53
2023-01-19T00:33:49.640Z,32.70
2023-01-19T00:36:17.681Z,32.86
2023-01-19T00:38:45.335Z,32.97
2023-01-19T00:41:13.241Z,32.45
2023-01-19T00:43:41.055Z,33.04
2023-01-19T00:46:09.005Z,33.06
2023-01-19T00:48:37.076Z,32.48
2023-01-19T00:51:05.168Z,32.94
2023-01-19T00:53:33.060Z,32.66
2023-01-19T00:56:00.829Z,32.33
2023-01-19T00:58:28.673Z,31.98
2023-01-19T01:01:03.824Z,31.94
2023-01-19T01:03:32.833Z,31.75
2023-01-19T01:06:00.951Z,31.49
2023-01-19T01:08:28.784Z,31.34
2023-01-19T01:10:57.341Z,31.28
2023-01-19T01:13:27.492Z,31.27
2023-01-19T01:15:59.769Z,31.53
2023-01-19T01:18:29.186Z,31.43
2023-01-19T01:21:07.796Z,31.30
2023-01-19T01:23:36.028Z,31.58
2023-01-19T01:26:03.856Z,31.17
2023-01-19T01:28:32.466Z,31.02
2023-01-19T01:31:03.400Z,31.00
2023-01-19T01:33:39.813Z,31.89
2023-01-19T01:36:11.841Z,31.26
2023-01-19T01:38:41.136Z,31.22
2023-01-19T01:41:09.814Z,31.07
2023-01-19T01:43:50.624Z,31.08
2023-01-19T01:46:20.143Z,31.61
2023-01-19T01:49:11.405Z,31.30
2023-01-19T01:51:54.321Z,31.37
2023-01-19T01:54:28.403Z,31.23
2023-01-19T01:57:03.308Z,31.36
2023-01-19T01:59:39.361Z,31.53
2023-01-19T02:02:30.395Z,31.43
2023-01-19T02:05:05.355Z,32.26
2023-01-19T02:08:28.686Z,32.15
2023-01-19T02:11:15.433Z,32.52
2023-01-19T02:13:45.530Z,32.01
2023-01-19T02:16:15.170Z,32.70
2023-01-19T02:18:43.719Z,31.86
2023-01-19T02:21:22.869Z,32.57
2023-01-19T02:23:53.213Z,32.62
2023-01-19T02:26:28.490Z,32.14
2023-01-19T02:29:02.620Z,32.54
2023-01-19T02:31:32.327Z,32.30
2023-01-19T02:34:01.945Z,31.77
2023-01-19T02:36:36.477Z,32.17
2023-01-19T02:39:06.105Z,32.25
2023-01-19T02:41:40.430Z,32.45
2023-01-19T02:44:11.458Z,31.78
2023-01-19T02:46:41.433Z,32.12
2023-01-19T02:49:09.540Z,31.87
2023-01-19T02:51:37.637Z,32.37
2023-01-19T02:54:05.352Z,31.79
2023-01-19T02:56:40.438Z,32.26
2023-01-19T02:59:50.462Z,32.61
2023-01-19T03:02:41.619Z,32.52
2023-01-19T03:05:29.778Z,32.21
2023-01-19T03:08:20.697Z,31.79
2023-01-19T03:11:03.066Z,32.04
2023-01-19T03:13:40.156Z,32.34
2023-01-19T03:16:17.176Z,32.21
2023-01-19T03:18:49.981Z,31.89
2023-01-19T03:21:21.155Z,32.25
2023-01-19T03:23:51.552Z,31.96
2023-01-19T03:26:25.160Z,32.71
2023-01-19T03:28:53.381Z,32.30
2023-01-19T03:31:24.833Z,32.48
2023-01-19T03:33:57.931Z,32.73
2023-01-19T03:36:31.895Z,32.26
2023-01-19T03:39:02.383Z,32.13
2023-01-19T03:41:32.664Z,32.30
2023-01-19T03:44:01.168Z,32.47
2023-01-19T03:46:30.606Z,32.43
2023-01-19T03:49:00.220Z,32.21
2023-01-19T03:51:28.433Z,32.91
2023-01-19T03:53:56.249Z,32.71
2023-01-19T03:56:26.228Z,32.73
2023-01-19T03:58:56.153Z,32.45
2023-01-19T04:01:25.129Z,32.08
2023-01-19T04:03:53.906Z,32.64
2023-01-19T04:06:22.303Z,32.41
2023-01-19T04:08:51.476Z,32.32
2023-01-19T04:11:19.321Z,32.61
2023-01-19T04:13:47.197Z,32.54
2023-01-19T04:16:20.166Z,32.21
2023-01-19T04:18:48.847Z,31.97
2023-01-19T04:21:17.518Z,32.07
2023-01-19T04:23:46.138Z,31.66
2023-01-19T04:26:14.845Z,31.35
2023-01-19T04:28:42.990Z,30.98
2023-01-19T04:31:10.923Z,30.94
2023-01-19T04:33:38.666Z,31.08
2023-01-19T04:36:06.550Z,31.25
2023-01-19T04:38:34.254Z,31.05
2023-01-19T04:41:02.040Z,30.67
2023-01-19T04:43:30.066Z,31.33
2023-01-19T04:45:57.990Z,30.89
2023-01-19T04:48:25.863Z,30.86
2023-01-19T04:50:54.239Z,30.70
2023-01-19T04:53:22.027Z,31.17
2023-01-19T04:55:55.796Z,31.10
2023-01-19T04:58:23.861Z,30.94
2023-01-19T05:00:53.326Z,30.98
2023-01-19T05:03:26.707Z,31.31
2023-01-19T05:05:54.733Z,31.63
2023-01-19T05:08:22.783Z,31.91
2023-01-19T05:10:50.790Z,31.71
2023-01-19T05:13:19.812Z,32.10
2023-01-19T05:15:47.594Z,32.19
2023-01-19T05:18:16.635Z,32.46
2023-01-19T05:20:44.428Z,32.68
2023-01-19T05:23:12.461Z,33.11
2023-01-19T05:25:40.257Z,33.09
2023-01-19T05:28:08.102Z,33.13
2023-01-19T05:30:36.219Z,32.72
2023-01-19T05:33:05.591Z,32.70
2023-01-19T05:35:36.499Z,32.43
2023-01-19T05:38:06.343Z,32.16
2023-01-19T05:40:34.982Z,32.28
2023-01-19T05:43:05.525Z,33.01
2023-01-19T05:45:34.466Z,32.40
2023-01-19T05:48:02.458Z,32.49
2023-01-19T05:50:30.350Z,33.02
2023-01-19T05:52:59.255Z,33.28
2023-01-19T05:55:27.964Z,33.28
2023-01-19T05:57:56.677Z,33.39
2023-01-19T06:00:25.178Z,33.80
2023-01-19T06:02:53.298Z,34.05
2023-01-19T06:05:21.530Z,34.18
2023-01-19T06:07:49.204Z,33.69
2023-01-19T06:10:17.695Z,33.31
2023-01-19T06:12:46.130Z,33.75
2023-01-19T06:15:15.079Z,33.51
2023-01-19T06:17:43.258Z,34.54
2023-01-19T06:20:17.214Z,34.60
2023-01-19T06:22:45.006Z,34.53
2023-01-19T06:25:13.153Z,34.61
2023-01-19T06:27:45.424Z,34.58
2023-01-19T06:30:13.967Z,34.43
2023-01-19T06:32:41.770Z,34.14
2023-01-19T06:35:09.727Z,34.26
2023-01-19T06:37:37.491Z,34.13
2023-01-19T06:40:06.292Z,34.22
2023-01-19T06:42:34.560Z,34.63
2023-01-19T06:45:04.269Z,35.00
2023-01-19T06:47:33.976Z,34.48
2023-01-19T06:50:02.603Z,34.09
2023-01-19T06:52:30.362Z,34.16
2023-01-19T06:54:58.916Z,34.21
2023-01-19T06:57:26.794Z,35.13
2023-01-19T06:59:54.635Z,34.69
2023-01-19T07:02:26.411Z,34.49
2023-01-19T07:04:55.106Z,34.37
2023-01-19T07:07:22.942Z,34.85
2023-01-19T07:09:53.867Z,35.21
2023-01-19T07:12:23.043Z,35.33
2023-01-19T07:14:50.976Z,35.96
2023-01-19T07:17:19.857Z,36.37
2023-01-19T07:19:47.620Z,37.16
2023-01-19T07:22:15.468Z,36.54
2023-01-19T07:24:43.113Z,36.65
2023-01-19T07:27:11.971Z,36.56
2023-01-19T07:29:40.359Z,36.40
2023-01-19T07:32:08.886Z,36.64
2023-01-19T07:34:37.166Z,36.50
2023-01-19T07:37:06.370Z,35.48
2023-01-19T07:39:36.774Z,35.42
2023-01-19T07:42:04.899Z,35.58
2023-01-19T07:44:32.883Z,35.42
2023-01-19T07:47:00.891Z,35.36
2023-01-19T07:49:28.932Z,35.10
2023-01-19T07:51:56.644Z,35.21
2023-01-19T07:54:24.682Z,35.65
2023-01-19T07:56:55.498Z,35.48
2023-01-19T07:59:23.717Z,39.64
2023-01-19T08:01:52.519Z,36.69
2023-01-19T08:04:21.050Z,36.42
2023-01-19T08:06:49.174Z,35.77
2023-01-19T08:09:18.205Z,35.57
2023-01-19T08:11:46.986Z,34.95
2023-01-19T08:14:14.767Z,35.60
2023-01-19T08:16:42.598Z,35.63
2023-01-19T08:19:10.388Z,35.01
2023-01-19T08:21:39.065Z,35.47
2023-01-19T08:24:18.268Z,35.91
2023-01-19T08:26:46.087Z,35.97
2023-01-19T08:29:15.252Z,35.99
2023-01-19T08:31:44.193Z,36.37
2023-01-19T08:34:12.225Z,36.48
2023-01-19T08:36:39.922Z,36.50
2023-01-19T08:39:07.737Z,36.39
2023-01-19T08:41:36.276Z,36.22
2023-01-19T08:44:04.281Z,35.91
2023-01-19T08:46:32.796Z,35.72
2023-01-19T08:49:02.309Z,35.91
2023-01-19T08:51:30.248Z,35.39
2023-01-19T08:53:57.893Z,35.21
2023-01-19T08:56:25.777Z,35.54
2023-01-19T08:59:07.676Z,35.28
2023-01-19T09:01:37.524Z,35.47
2023-01-19T09:04:05.605Z,35.73
2023-01-19T09:06:34.377Z,35.72
2023-01-19T09:09:02.331Z,35.68
2023-01-19T09:11:30.890Z,35.21
2023-01-19T09:13:59.160Z,35.28
2023-01-19T09:16:27.488Z,35.02
2023-01-19T09:18:56.391Z,35.57
2023-01-19T09:21:24.273Z,34.96
2023-01-19T09:23:52.506Z,35.67
2023-01-19T09:26:22.343Z,35.87
2023-01-19T09:28:50.186Z,35.15
2023-01-19T09:31:18.350Z,34.99
2023-01-19T09:33:46.532Z,35.28
2023-01-19T09:36:14.569Z,35.24
2023-01-19T09:38:42.722Z,34.47
2023-01-19T09:41:21.269Z,35.00
2023-01-19T09:43:56.722Z,34.73
2023-01-19T09:46:31.245Z,35.20
2023-01-19T09:49:05.203Z,34.81
2023-01-19T09:51:39.569Z,34.82
2023-01-19T09:54:25.876Z,35.56
2023-01-19T09:56:54.544Z,35.82
2023-01-19T09:59:30.631Z,34.61
2023-01-19T10:02:04.587Z,35.03
2023-01-19T10:05:02.600Z,34.98
2023-01-19T10:07:38.759Z,35.19
2023-01-19T10:10:26.722Z,34.65
2023-01-19T10:13:11.644Z,34.50
2023-01-19T10:15:46.089Z,35.01
2023-01-19T10:18:35.990Z,33.86
2023-01-19T10:21:12.053Z,33.87
2023-01-19T10:24:12.318Z,34.66
2023-01-19T10:26:52.630Z,35.42
2023-01-19T10:29:26.363Z,34.58
2023-01-19T10:32:08.265Z,34.89
2023-01-19T10:34:36.267Z,34.78
2023-01-19T10:37:38.060Z,34.53
2023-01-19T10:40:12.077Z,34.67
2023-01-19T10:42:41.909Z,34.35
2023-01-19T10:45:20.091Z,34.45
2023-01-19T10:47:49.509Z,35.09
2023-01-19T10:50:45.161Z,34.25
2023-01-19T10:53:23.043Z,34.30
2023-01-19T10:56:22.515Z,34.60
2023-01-19T10:58:50.643Z,34.47
2023-01-19T11:01:19.980Z,34.23
2023-01-19T11:03:48.414Z,34.01
2023-01-19T11:06:16.148Z,34.85
2023-01-19T11:08:45.763Z,34.52
2023-01-19T11:11:14.355Z,34.66
2023-01-19T11:13:43.901Z,34.18
2023-01-19T11:16:17.848Z,34.96
2023-01-19T11:18:47.419Z,34.68
2023-01-19T11:21:17.427Z,34.48
2023-01-19T11:23:51.494Z,34.81
2023-01-19T11:26:48.077Z,35.50
2023-01-19T11:29:22.035Z,34.77
2023-01-19T11:31:51.194Z,34.10
2023-01-19T11:34:33.234Z,34.02
2023-01-19T11:37:22.113Z,34.02
2023-01-19T11:39:52.744Z,34.15
2023-01-19T11:42:21.847Z,34.18
2023-01-19T11:45:15.151Z,34.10
2023-01-19T11:47:44.506Z,34.18
2023-01-19T11:50:25.884Z,33.69
2023-01-19T11:53:06.001Z,33.92
2023-01-19T11:55:44.040Z,33.37
2023-01-19T11:58:16.540Z,34.26
2023-01-19T12:00:54.295Z,34.63
2023-01-19T12:03:38.022Z,34.24
2023-01-19T12:06:20.320Z,33.99
2023-01-19T12:09:06.540Z,33.57
2023-01-19T12:11:46.812Z,33.08
2023-01-19T12:14:26.963Z,34.14
2023-01-19T12:16:58.375Z,33.74
2023-01-19T12:19:39.684Z,33.78
2023-01-19T12:22:15.121Z,33.66
2023-01-19T12:24:52.844Z,33.74
2023-01-19T12:27:46.725Z,33.70
2023-01-19T12:30:20.705Z,33.97
2023-01-19T12:32:48.971Z,34.10
2023-01-19T12:35:54.033Z,34.48
2023-01-19T12:38:39.600Z,34.76
2023-01-19T12:41:21.991Z,34.49
2023-01-19T12:44:12.536Z,35.10
2023-01-19T12:47:08.619Z,35.17
2023-01-19T12:50:15.842Z,40.55
2023-01-19T12:52:51.778Z,36.69
2023-01-19T12:55:24.573Z,35.45
2023-01-19T12:58:01.393Z,35.03
2023-01-19T13:00:33.742Z,34.94
2023-01-19T13:03:20.064Z,35.24
2023-01-19T13:05:48.969Z,34.77
2023-01-19T13:08:19.697Z,34.75
2023-01-19T13:11:00.071Z,34.73
2023-01-19T13:13:37.244Z,34.56
2023-01-19T13:16:20.825Z,34.52
2023-01-19T13:18:59.756Z,34.02
2023-01-19T13:21:45.123Z,34.34
2023-01-19T13:24:15.931Z,34.58
2023-01-19T13:26:55.741Z,37.16
2023-01-19T13:29:35.279Z,33.93
2023-01-19T13:32:17.884Z,34.25
2023-01-19T13:34:52.177Z,34.49
2023-01-19T13:37:27.543Z,33.66
2023-01-19T13:39:57.105Z,34.00
2023-01-19T13:42:37.872Z,33.85
2023-01-19T13:45:34.565Z,33.90
2023-01-19T13:48:06.614Z,33.93
2023-01-19T13:50:39.327Z,33.74
2023-01-19T13:53:19.314Z,33.88
2023-01-19T13:56:17.214Z,34.20
2023-01-19T13:59:01.319Z,34.61
2023-01-19T14:01:30.100Z,34.33
2023-01-19T14:03:58.300Z,34.35
2023-01-19T14:06:40.499Z,34.04
2023-01-19T14:09:17.734Z,42.63
2023-01-19T14:11:47.230Z,34.25
2023-01-19T14:14:27.878Z,33.69
2023-01-19T14:16:55.629Z,33.80
2023-01-19T14:19:23.589Z,33.85
2023-01-19T14:22:03.903Z,34.29
2023-01-19T14:24:34.591Z,34.09
2023-01-19T14:27:22.823Z,33.85
2023-01-19T14:29:53.858Z,33.95
2023-01-19T14:32:24.563Z,34.83
2023-01-19T14:35:05.198Z,34.08
2023-01-19T14:37:35.577Z,33.75
2023-01-19T14:40:15.390Z,33.96
2023-01-19T14:42:53.701Z,34.14
2023-01-19T14:45:31.030Z,37.32
2023-01-19T14:48:00.513Z,35.14
2023-01-19T14:50:38.057Z,37.95
2023-01-19T14:53:18.282Z,35.85
2023-01-19T14:55:52.908Z,35.16
2023-01-19T14:58:23.003Z,34.65
2023-01-19T15:00:56.189Z,34.63
2023-01-19T15:03:34.949Z,32.84
2023-01-19T15:06:19.679Z,32.83
2023-01-19T15:08:50.326Z,33.03
2023-01-19T15:11:25.009Z,32.89
2023-01-19T15:13:53.595Z,32.83
2023-01-19T15:16:23.544Z,33.04
2023-01-19T15:18:54.200Z,32.64
2023-01-19T15:21:30.701Z,33.54
2023-01-19T15:23:58.770Z,33.67
2023-01-19T15:26:27.971Z,33.97
2023-01-19T15:28:58.001Z,33.61
2023-01-19T15:31:26.817Z,33.51
2023-01-19T15:33:54.708Z,33.30
2023-01-19T15:36:25.727Z,33.29
2023-01-19T15:38:54.082Z,33.51
2023-01-19T15:41:27.604Z,34.57
2023-01-19T15:43:55.706Z,35.16
2023-01-19T15:46:30.378Z,35.34
2023-01-19T15:48:59.380Z,34.63
2023-01-19T15:51:28.192Z,34.26
2023-01-19T15:53:56.242Z,33.72
2023-01-19T15:56:26.370Z,33.67
2023-01-19T15:58:54.825Z,33.74
2023-01-19T16:01:24.914Z,33.72
2023-01-19T16:03:53.206Z,33.81
2023-01-19T16:06:20.910Z,33.46
2023-01-19T16:08:48.630Z,33.46
2023-01-19T16:11:18.541Z,33.51
2023-01-19T16:13:48.341Z,33.21
2023-01-19T16:16:22.099Z,33.82
2023-01-19T16:18:50.566Z,33.70
2023-01-19T16:21:18.350Z,34.01
2023-01-19T16:23:46.163Z,33.42
2023-01-19T16:26:25.044Z,32.98
2023-01-19T16:28:53.250Z,33.52
2023-01-19T16:31:21.000Z,33.49
2023-01-19T16:33:49.161Z,33.66
2023-01-19T16:36:22.755Z,33.65
2023-01-19T16:38:50.939Z,32.80
2023-01-19T16:41:19.047Z,33.26
2023-01-19T16:43:52.109Z,32.43
2023-01-19T16:46:36.278Z,33.11
2023-01-19T16:49:07.194Z,33.88
2023-01-19T16:51:34.949Z,33.81
2023-01-19T16:54:05.407Z,32.47
2023-01-19T16:56:33.451Z,32.85
2023-01-19T16:59:02.163Z,32.88
2023-01-19T17:01:31.611Z,32.92
2023-01-19T17:04:01.232Z,32.50
2023-01-19T17:06:30.382Z,32.59
2023-01-19T17:08:58.802Z,33.07
2023-01-19T17:11:30.748Z,33.42
2023-01-19T17:14:08.156Z,33.63
2023-01-19T17:16:36.759Z,33.44
2023-01-19T17:19:06.437Z,33.33
2023-01-19T17:21:35.289Z,33.78
2023-01-19T17:24:03.242Z,33.95
2023-01-19T17:26:32.224Z,33.74
2023-01-19T17:29:05.781Z,33.78
2023-01-19T17:31:34.884Z,33.83
2023-01-19T17:34:03.495Z,33.62
2023-01-19T17:36:32.573Z,32.89
2023-01-19T17:39:05.354Z,33.93
2023-01-19T17:41:35.938Z,34.27
2023-01-19T17:44:06.538Z,34.52
2023-01-19T17:46:38.139Z,34.20
2023-01-19T17:49:07.722Z,33.45
2023-01-19T17:51:37.531Z,33.92
2023-01-19T17:54:07.456Z,34.71
2023-01-19T17:56:37.725Z,34.53
2023-01-19T17:59:08.103Z,33.57
2023-01-19T18:01:40.743Z,34.30
2023-01-19T18:04:09.452Z,34.74
2023-01-19T18:06:38.248Z,35.77
2023-01-19T18:09:07.555Z,33.74
2023-01-19T18:11:36.016Z,34.45
2023-01-19T18:14:04.201Z,34.40
2023-01-19T18:16:32.693Z,33.88
2023-01-19T18:19:00.464Z,33.29
2023-01-19T18:21:30.548Z,32.87
2023-01-19T18:24:01.543Z,33.11
2023-01-19T18:26:31.244Z,32.38
2023-01-19T18:29:00.013Z,32.36
2023-01-19T18:31:28.442Z,33.95
2023-01-19T18:34:03.709Z,32.86
2023-01-19T18:36:32.771Z,33.88
2023-01-19T18:39:01.438Z,33.84
2023-01-19T18:41:29.983Z,32.98
2023-01-19T18:43:59.072Z,33.16
2023-01-19T18:46:27.815Z,33.94
2023-01-19T18:48:55.775Z,33.30
2023-01-19T18:51:23.979Z,32.88
2023-01-19T18:53:52.008Z,34.97
2023-01-19T18:56:20.032Z,34.57
2023-01-19T18:58:47.855Z,34.44
2023-01-19T19:01:26.448Z,34.00
2023-01-19T19:03:55.583Z,33.45
2023-01-19T19:06:26.994Z,33.63
2023-01-19T19:08:57.214Z,33.29
2023-01-19T19:11:25.988Z,34.24
2023-01-19T19:13:56.713Z,33.44
2023-01-19T19:16:25.030Z,35.52
2023-01-19T19:18:56.276Z,35.13
2023-01-19T19:21:25.653Z,34.52
2023-01-19T19:23:55.281Z,34.07
2023-01-19T19:26:24.391Z,33.92
2023-01-19T19:28:53.267Z,33.75
2023-01-19T19:31:22.993Z,34.67
2023-01-19T19:33:51.587Z,34.46
2023-01-19T19:36:21.179Z,34.40
2023-01-19T19:38:49.856Z,34.47
2023-01-19T19:41:23.436Z,34.56
2023-01-19T19:43:51.339Z,34.85
2023-01-19T19:46:21.235Z,35.80
2023-01-19T19:48:49.722Z,35.11
2023-01-19T19:51:23.086Z,35.15
2023-01-19T19:53:52.925Z,34.94
2023-01-19T19:56:23.157Z,35.01
2023-01-19T19:58:54.092Z,34.84
2023-01-19T20:01:27.216Z,35.27
2023-01-19T20:03:57.073Z,35.13
2023-01-19T20:06:28.775Z,35.27
2023-01-19T20:08:56.949Z,36.16
2023-01-19T20:11:27.631Z,34.92
2023-01-19T20:13:55.727Z,36.28
2023-01-19T20:16:24.179Z,36.19
2023-01-19T20:18:54.426Z,37.10
2023-01-19T20:21:33.401Z,36.19
2023-01-19T20:24:03.532Z,36.06
2023-01-19T20:26:34.257Z,36.47
2023-01-19T20:29:06.417Z,38.04
2023-01-19T20:31:40.741Z,39.98
2023-01-19T20:34:10.305Z,39.61
2023-01-19T20:36:38.349Z,38.90
2023-01-19T20:39:11.292Z,37.76
2023-01-19T20:41:43.825Z,37.14
2023-01-19T20:44:14.097Z,37.50
2023-01-19T20:46:42.363Z,37.82
2023-01-19T20:49:10.399Z,37.65
2023-01-19T20:51:43.236Z,38.04
2023-01-19T20:54:15.940Z,38.08
2023-01-19T20:56:43.890Z,37.95
2023-01-19T20:59:12.406Z,37.83
2023-01-19T21:01:41.120Z,37.56
2023-01-19T21:04:10.083Z,37.48
2023-01-19T21:06:38.982Z,37.57
2023-01-19T21:09:08.619Z,37.13
2023-01-19T21:11:38.394Z,36.87
2023-01-19T21:14:07.352Z,37.12
2023-01-19T21:16:36.242Z,37.44
2023-01-19T21:19:04.981Z,37.89
2023-01-19T21:21:34.248Z,37.67
2023-01-19T21:24:02.900Z,37.75
2023-01-19T21:26:31.731Z,37.45
2023-01-19T21:29:01.236Z,37.93
2023-01-19T21:31:29.552Z,37.83
2023-01-19T21:33:59.017Z,37.84
2023-01-19T21:36:27.141Z,38.37
2023-01-19T21:39:01.080Z,38.44
2023-01-19T21:41:30.435Z,38.83
2023-01-19T21:44:01.055Z,38.48
2023-01-19T21:46:29.817Z,38.59
2023-01-19T21:48:58.925Z,38.93
2023-01-19T21:51:27.922Z,38.63
2023-01-19T21:54:00.358Z,38.35
2023-01-19T21:56:29.829Z,38.81
2023-01-19T21:58:59.536Z,38.78
2023-01-19T22:01:27.709Z,39.21
2023-01-19T22:03:57.187Z,38.68
2023-01-19T22:06:27.968Z,38.62
2023-01-19T22:08:58.566Z,38.52
2023-01-19T22:11:27.524Z,38.58
2023-01-19T22:13:55.345Z,38.80
2023-01-19T22:16:23.764Z,38.84
2023-01-19T22:18:54.385Z,38.31
2023-01-19T22:21:26.251Z,38.61
2023-01-19T22:23:56.609Z,39.02
2023-01-19T22:26:25.614Z,38.89
2023-01-19T22:28:58.488Z,38.79
2023-01-19T22:31:28.753Z,39.16
2023-01-19T22:33:57.200Z,38.78
2023-01-19T22:36:28.623Z,39.11
2023-01-19T22:38:58.562Z,38.99
2023-01-19T22:41:35.715Z,39.13
2023-01-19T22:44:07.431Z,38.96
2023-01-19T22:46:37.114Z,38.95
2023-01-19T22:49:07.965Z,38.68
2023-01-19T22:51:36.577Z,39.09
2023-01-19T22:54:04.936Z,39.37
2023-01-19T22:56:35.540Z,39.09
2023-01-19T22:59:04.584Z,39.34
2023-01-19T23:01:36.911Z,39.36
2023-01-19T23:04:06.349Z,39.30
2023-01-19T23:06:35.844Z,39.18
2023-01-19T23:09:11.720Z,39.18
2023-01-19T23:11:42.289Z,39.53
2023-01-19T23:14:15.635Z,39.35
2023-01-19T23:16:43.680Z,39.58
2023-01-19T23:19:14.136Z,40.03
2023-01-19T23:21:42.091Z,40.05
2023-01-19T23:24:10.329Z,39.64
2023-01-19T23:26:38.716Z,39.74
2023-01-19T23:29:11.393Z,40.26
2023-01-19T23:31:42.890Z,39.91
2023-01-19T23:34:12.415Z,40.04
2023-01-19T23:36:42.376Z,40.21
2023-01-19T23:39:13.421Z,40.26
2023-01-19T23:41:41.320Z,40.09
2023-01-19T23:44:09.737Z,39.90
2023-01-19T23:46:52.924Z,40.35
2023-01-19T23:49:20.797Z,40.07
2023-01-19T23:51:48.624Z,40.17
2023-01-19T23:54:16.953Z,40.17
2023-01-19T23:56:44.866Z,40.31
2023-01-19T23:59:15.959Z,40.55
